Kalaeloa (John Rodgers Field) Airport Kapolei US
ICAO: PHJR
IATA:
Category: Medium
Scheduled Services:

Elevation: 30 ft
TransAlt. 18000 ft.

Airport Communications:
HONOLULU APP/DEP:118.3
ATIS:119.8
CLNC DEL:121.7
CTAF:132.6
GND:123.8
TWR:132.6

PHJR Zoom In..

If Map Doesn't Load, Click Here

Runways:

(A) RW 04L length 4500 ft width 200 ft
---- / hdg 44

(B) RW 04R length 8000 ft width 200 ft
---- / hdg 44

(C) RW 11 length 6000 ft width 200 ft
---- / hdg 108

(D) RW 22L length 8000 ft width 200 ft
---- / hdg 224

(E) RW 22R length 4500 ft width 200 ft
---- / hdg 224

(F) RW 29 length 6000 ft width 200 ft
---- / hdg 288

Location; PHJR
Day. 26 / Time. 10.36 Zulu
* Altimeter: 29.87
* Temperature: 27° c. 80.6°f.
* Wind from: 180° Speed 08 kn.
Dewpoint: 24° c.
Visibility: 10 Statute Miles.
Clouds: Scattered 1500 ft.
Clouds: Scattered 4400 ft.

PHJR 261036Z 18008KT 10SM SCT015 SCT044 27/24 A2987 RMK AO2 T02720244


Wind From 180°
Speed 08 kn.

 
 
jpsmedia.com for Web Design worldairports.se 2018   terms of use